Time;durP1;ratioP1;P1;durP2;ratioP2;P2;SDS_P1;SDS_P2;PMS_P1;PMS_P2;Temp;Humidity;BMP_temperature;BMP_pressure;BME280_temperature;BME280_humidity;BME280_pressure;Samples;Min_cycle;Max_cycle;Signal;HPM_P1;HPM_P2
2021/03/09 00:01:44;;;;;;;8.68;3.33;;;2.50;66.60;;;;;;5052201;28;20204;-45
2021/03/09 00:04:11;;;;;;;7.05;3.80;;;2.50;66.00;;;;;;5051635;28;20211;-45
2021/03/09 00:06:37;;;;;;;12.25;4.10;;;2.60;67.10;;;;;;5051932;28;20302;-44
2021/03/09 00:09:04;;;;;;;18.13;5.32;;;1.90;66.20;;;;;;5052208;28;20236;-44
2021/03/09 00:11:30;;;;;;;8.43;4.13;;;2.50;67.00;;;;;;5052052;28;20282;-45
2021/03/09 00:13:57;;;;;;;5.90;3.45;;;2.80;67.40;;;;;;5051364;28;20271;-44
2021/03/09 00:16:23;;;;;;;6.03;3.42;;;2.70;67.40;;;;;;5052031;28;20626;-46
2021/03/09 00:18:50;;;;;;;8.77;3.75;;;2.30;67.10;;;;;;5051901;28;20250;-44
2021/03/09 00:21:16;;;;;;;6.53;3.28;;;1.80;65.80;;;;;;5051917;28;20200;-45
2021/03/09 00:23:42;;;;;;;7.78;3.95;;;2.70;67.30;;;;;;5051429;28;20299;-43
2021/03/09 00:26:08;;;;;;;6.90;3.90;;;2.60;66.90;;;;;;5052235;28;20258;-43
2021/03/09 00:28:35;;;;;;;9.02;3.80;;;2.70;66.90;;;;;;5054247;28;20729;-44
2021/03/09 00:31:01;;;;;;;9.45;3.30;;;2.60;66.40;;;;;;5036177;28;20211;-44
2021/03/09 00:33:27;;;;;;;6.88;3.50;;;2.70;66.80;;;;;;5053223;28;20192;-45
2021/03/09 00:35:54;;;;;;;7.50;3.58;;;2.70;66.20;;;;;;5053361;28;20215;-44
2021/03/09 00:38:20;;;;;;;11.32;3.53;;;2.70;66.60;;;;;;5053707;28;20791;-46
2021/03/09 00:40:47;;;;;;;7.47;3.40;;;2.50;66.40;;;;;;5054604;28;20282;-45
2021/03/09 00:43:13;;;;;;;18.75;4.28;;;2.70;66.50;;;;;;5054492;28;20220;-46
2021/03/09 00:45:42;;;;;;;7.53;3.70;;;2.60;65.50;;;;;;5055411;28;20289;-45
2021/03/09 00:48:08;;;;;;;6.40;4.00;;;2.60;66.30;;;;;;5037747;28;20577;-44
2021/03/09 00:50:34;;;;;;;6.65;3.75;;;2.70;66.10;;;;;;5055108;28;20216;-44
2021/03/09 00:53:01;;;;;;;11.45;4.60;;;2.70;65.70;;;;;;5054098;28;20271;-44
2021/03/09 00:55:28;;;;;;;9.07;4.30;;;2.70;66.40;;;;;;5053223;28;20820;-44
2021/03/09 00:57:55;;;;;;;10.70;3.65;;;2.70;66.40;;;;;;5051476;28;20737;-45
2021/03/09 01:00:22;;;;;;;8.05;4.10;;;2.60;66.20;;;;;;5051487;28;20188;-45
2021/03/09 01:02:48;;;;;;;9.13;4.75;;;2.60;66.00;;;;;;5051189;28;20336;-44
2021/03/09 01:05:15;;;;;;;8.98;4.40;;;2.70;66.00;;;;;;5051271;28;20302;-45
2021/03/09 01:07:42;;;;;;;6.82;3.83;;;2.70;65.80;;;;;;5051762;28;20192;-44
2021/03/09 01:10:11;;;;;;;6.47;4.07;;;2.60;65.80;;;;;;5051360;28;20238;-45
2021/03/09 01:12:37;;;;;;;6.70;4.63;;;2.90;66.00;;;;;;5051354;28;20280;-45
2021/03/09 01:15:05;;;;;;;9.20;4.50;;;2.60;65.60;;;;;;5051395;28;20291;-46
2021/03/09 01:17:31;;;;;;;7.90;4.50;;;2.70;65.70;;;;;;5051310;28;20219;-46
2021/03/09 01:19:57;;;;;;;10.95;4.30;;;2.90;65.80;;;;;;5051317;28;20203;-46
2021/03/09 01:22:24;;;;;;;6.18;3.90;;;2.70;65.80;;;;;;5033082;28;20668;-45
2021/03/09 01:24:50;;;;;;;9.05;4.32;;;2.70;65.90;;;;;;5051922;28;20604;-45
2021/03/09 01:27:17;;;;;;;7.35;4.55;;;2.80;65.70;;;;;;5055330;28;20242;-46
2021/03/09 01:29:43;;;;;;;7.72;4.05;;;2.50;65.80;;;;;;5055071;28;20202;-43
2021/03/09 01:32:09;;;;;;;8.15;4.70;;;2.80;66.10;;;;;;5054943;28;20287;-47
2021/03/09 01:34:36;;;;;;;8.82;4.60;;;2.20;65.50;;;;;;5054627;28;20216;-45
2021/03/09 01:37:03;;;;;;;7.65;3.60;;;3.00;66.20;;;;;;5037106;28;20235;-45
2021/03/09 01:39:29;;;;;;;11.38;4.95;;;2.90;66.10;;;;;;5054923;28;20188;-44
2021/03/09 01:41:55;;;;;;;7.75;4.97;;;3.00;66.20;;;;;;5054721;28;20230;-44
2021/03/09 01:44:24;;;;;;;11.45;5.25;;;2.30;65.40;;;;;;5054439;28;20231;-43
2021/03/09 01:46:51;;;;;;;9.25;5.30;;;2.70;65.90;;;;;;5054670;28;20289;-45
2021/03/09 01:49:18;;;;;;;9.20;5.50;;;2.30;65.50;;;;;;5054803;28;20228;-44
2021/03/09 01:51:45;;;;;;;10.27;4.90;;;2.80;66.00;;;;;;5054704;28;20199;-46
2021/03/09 01:54:11;;;;;;;7.70;4.65;;;2.80;66.00;;;;;;5054324;28;20211;-45
2021/03/09 01:56:38;;;;;;;13.18;5.60;;;2.70;65.70;;;;;;5054297;28;20259;-45
2021/03/09 01:59:06;;;;;;;9.25;4.80;;;2.70;65.10;;;;;;5054517;28;20238;-44
2021/03/09 02:01:34;;;;;;;7.90;4.63;;;2.70;66.10;;;;;;5054617;28;20606;-45
2021/03/09 02:04:00;;;;;;;9.13;4.22;;;2.70;66.20;;;;;;5054011;28;20204;-46
2021/03/09 02:06:27;;;;;;;11.77;5.50;;;2.80;66.20;;;;;;5054424;28;20216;-44
2021/03/09 02:08:53;;;;;;;9.30;5.30;;;2.40;65.90;;;;;;5054391;28;20192;-44
2021/03/09 02:11:36;;;;;;;11.13;5.25;;;2.70;65.40;;;;;;5055125;28;20675;-45
2021/03/09 02:14:09;;;;;;;10.82;4.70;;;2.80;66.40;;;;;;5054856;28;20314;-45
2021/03/09 02:16:43;;;;;;;9.27;4.55;;;2.70;66.40;;;;;;5055153;28;20219;-45
2021/03/09 02:19:35;;;;;;;6.60;4.22;;;2.70;66.40;;;;;;5054886;28;20195;-44
2021/03/09 02:22:27;;;;;;;9.45;5.72;;;2.00;65.80;;;;;;5021713;28;20719;-44
2021/03/09 02:25:06;;;;;;;9.18;5.07;;;2.80;66.70;;;;;;5055238;28;20259;-45
2021/03/09 02:27:57;;;;;;;13.23;4.75;;;2.60;66.50;;;;;;5055589;28;20196;-46
2021/03/09 02:30:27;;;;;;;7.00;4.05;;;2.60;66.50;;;;;;5047831;28;20622;-45
2021/03/09 02:33:02;;;;;;;12.57;5.10;;;2.70;66.60;;;;;;5036814;28;20196;-46
2021/03/09 02:35:30;;;;;;;8.35;5.10;;;2.40;65.20;;;;;;5054882;28;20216;-45
2021/03/09 02:38:00;;;;;;;9.55;4.72;;;2.50;66.50;;;;;;5054920;28;20192;-45
2021/03/09 02:40:27;;;;;;;8.57;4.47;;;2.30;66.30;;;;;;5054886;28;20206;-45
2021/03/09 02:42:56;;;;;;;8.30;4.65;;;2.40;66.40;;;;;;5054244;28;20683;-45
2021/03/09 02:45:23;;;;;;;10.20;4.85;;;2.60;66.80;;;;;;5054409;28;20248;-46
2021/03/09 02:47:52;;;;;;;8.05;5.25;;;1.80;65.90;;;;;;5053947;28;20558;-44
2021/03/09 02:50:22;;;;;;;10.75;5.38;;;2.20;66.60;;;;;;5053673;28;20737;-45
2021/03/09 02:52:55;;;;;;;9.20;5.20;;;2.10;66.50;;;;;;5053247;28;20200;-44
2021/03/09 02:55:22;;;;;;;10.88;4.25;;;2.40;67.00;;;;;;5053955;28;20252;-45
2021/03/09 02:57:50;;;;;;;7.20;4.63;;;2.10;66.70;;;;;;5053718;28;20196;-44
2021/03/09 03:00:18;;;;;;;7.05;4.72;;;2.40;67.10;;;;;;5053504;28;20275;-44
2021/03/09 03:02:46;;;;;;;10.05;5.75;;;2.00;66.80;;;;;;5035247;28;20195;-44
2021/03/09 03:05:14;;;;;;;6.50;5.03;;;2.10;67.00;;;;;;5053113;28;20295;-45
2021/03/09 03:07:41;;;;;;;8.43;4.97;;;2.40;67.50;;;;;;5053315;28;20199;-44
2021/03/09 03:10:13;;;;;;;6.40;4.10;;;2.20;67.30;;;;;;5035483;28;20740;-45
2021/03/09 03:12:41;;;;;;;11.07;5.28;;;2.30;67.60;;;;;;5053120;28;20559;-44
2021/03/09 03:15:10;;;;;;;13.15;5.15;;;2.10;67.40;;;;;;5053277;28;20692;-44
2021/03/09 03:17:37;;;;;;;7.82;4.40;;;2.30;67.70;;;;;;5053072;28;20196;-44
2021/03/09 03:20:08;;;;;;;7.25;4.72;;;2.10;67.50;;;;;;5053045;28;20742;-44
2021/03/09 03:22:38;;;;;;;7.78;5.03;;;2.10;67.70;;;;;;5053091;28;20204;-45
2021/03/09 03:25:06;;;;;;;9.70;5.72;;;2.20;67.80;;;;;;5055715;28;20319;-45
2021/03/09 03:27:35;;;;;;;6.60;4.40;;;2.20;67.50;;;;;;5053820;28;20224;-45
2021/03/09 03:30:01;;;;;;;8.77;5.00;;;1.90;67.60;;;;;;5053518;28;20192;-44
2021/03/09 03:32:28;;;;;;;10.63;6.15;;;2.00;67.80;;;;;;5052838;28;20191;-46
2021/03/09 03:34:55;;;;;;;9.32;4.45;;;2.00;67.80;;;;;;5053026;28;20231;-44
2021/03/09 03:37:21;;;;;;;12.57;5.53;;;2.20;68.10;;;;;;5052727;28;20200;-45
2021/03/09 03:39:49;;;;;;;8.65;4.90;;;2.30;67.70;;;;;;5052689;28;20195;-44
2021/03/09 03:42:17;;;;;;;9.90;4.53;;;1.90;67.90;;;;;;5052691;28;20690;-45
2021/03/09 03:44:43;;;;;;;6.70;4.63;;;2.20;67.30;;;;;;5052457;28;20208;-44
2021/03/09 03:47:10;;;;;;;8.43;5.10;;;2.20;68.20;;;;;;5052164;28;20230;-45
2021/03/09 03:49:36;;;;;;;7.43;4.70;;;2.30;69.00;;;;;;5052432;28;20227;-45
2021/03/09 03:52:10;;;;;;;7.85;4.57;;;2.30;68.20;;;;;;5052391;28;20273;-44
2021/03/09 03:54:44;;;;;;;6.80;4.50;;;2.20;68.10;;;;;;5052402;28;20661;-44
2021/03/09 03:57:18;;;;;;;10.15;5.13;;;1.90;67.70;;;;;;5052349;28;20195;-45
2021/03/09 03:59:49;;;;;;;8.52;4.80;;;2.30;68.10;;;;;;5051280;28;20196;-46
2021/03/09 04:02:15;;;;;;;10.55;5.03;;;2.00;67.80;;;;;;5051621;28;20200;-45
2021/03/09 04:04:45;;;;;;;9.10;5.13;;;2.00;67.80;;;;;;5052004;28;20219;-45
2021/03/09 04:07:11;;;;;;;8.65;4.95;;;2.10;67.90;;;;;;5052202;28;20191;-45
2021/03/09 04:09:38;;;;;;;6.00;4.05;;;2.40;68.20;;;;;;5052981;28;20223;-46
2021/03/09 04:12:07;;;;;;;10.00;5.15;;;2.10;67.90;;;;;;5036483;28;20275;-45
2021/03/09 04:14:34;;;;;;;8.68;4.07;;;2.20;67.90;;;;;;5052066;28;20679;-44
2021/03/09 04:17:03;;;;;;;7.10;4.18;;;2.30;68.00;;;;;;5052619;28;20279;-45
2021/03/09 04:19:30;;;;;;;7.93;4.90;;;2.10;67.80;;;;;;5052311;28;20206;-45
2021/03/09 04:21:59;;;;;;;8.65;5.35;;;2.00;67.70;;;;;;5052626;28;20257;-45
2021/03/09 04:24:26;;;;;;;10.85;4.75;;;2.40;68.00;;;;;;5053817;28;20212;-46
2021/03/09 04:26:53;;;;;;;8.25;4.72;;;2.10;67.70;;;;;;5054625;28;20220;-45
2021/03/09 04:29:20;;;;;;;6.75;4.45;;;2.10;67.70;;;;;;5054160;28;20220;-45
2021/03/09 04:31:48;;;;;;;9.40;4.80;;;2.40;68.00;;;;;;5052360;28;20283;-45
2021/03/09 04:34:14;;;;;;;6.85;4.32;;;2.40;67.80;;;;;;5051963;28;20255;-46
2021/03/09 04:36:42;;;;;;;14.70;5.53;;;2.40;67.90;;;;;;5052392;28;20303;-45
2021/03/09 04:39:09;;;;;;;9.50;5.43;;;2.20;67.60;;;;;;5054254;28;20672;-44
2021/03/09 04:41:36;;;;;;;7.72;4.45;;;2.00;67.60;;;;;;5052903;28;20731;-44
2021/03/09 04:44:03;;;;;;;9.10;4.88;;;2.10;67.70;;;;;;5052763;28;20584;-44
2021/03/09 04:46:30;;;;;;;8.63;5.63;;;1.90;67.40;;;;;;5053549;28;20734;-46
2021/03/09 04:48:57;;;;;;;10.05;5.43;;;2.40;68.00;;;;;;5053256;28;20206;-46
2021/03/09 04:51:23;;;;;;;9.13;5.05;;;2.10;67.80;;;;;;5034738;28;20627;-45
2021/03/09 04:53:50;;;;;;;8.75;4.95;;;2.30;68.00;;;;;;5034477;28;20287;-47
2021/03/09 04:56:16;;;;;;;16.63;5.47;;;2.20;67.80;;;;;;5051612;28;20276;-45
2021/03/09 04:58:42;;;;;;;10.50;4.72;;;2.40;68.00;;;;;;5052615;28;20199;-46
2021/03/09 05:01:08;;;;;;;10.93;4.93;;;2.00;67.60;;;;;;5056163;28;20196;-46
2021/03/09 05:03:36;;;;;;;10.20;5.00;;;2.20;67.80;;;;;;5055732;28;20196;-45
2021/03/09 05:06:04;;;;;;;12.02;4.93;;;2.20;67.70;;;;;;5055730;28;20208;-46
2021/03/09 05:08:30;;;;;;;9.38;5.07;;;2.00;67.50;;;;;;5056137;28;20596;-46
2021/03/09 05:10:57;;;;;;;9.68;5.85;;;2.10;67.60;;;;;;5056488;28;20231;-45
2021/03/09 05:13:23;;;;;;;9.10;5.10;;;2.30;67.90;;;;;;5055744;28;20191;-44
2021/03/09 05:15:50;;;;;;;8.02;4.55;;;2.10;67.40;;;;;;5056400;28;20307;-44
2021/03/09 05:18:17;;;;;;;11.50;5.10;;;2.00;67.60;;;;;;5056305;28;20287;-44
2021/03/09 05:20:43;;;;;;;8.55;4.65;;;2.20;67.60;;;;;;5057646;28;20227;-45
2021/03/09 05:23:10;;;;;;;10.43;4.78;;;2.20;67.60;;;;;;5056381;28;20547;-45
2021/03/09 05:25:36;;;;;;;7.15;4.85;;;2.30;67.90;;;;;;5056787;28;20227;-46
2021/03/09 05:28:03;;;;;;;7.97;5.22;;;2.10;67.70;;;;;;5056441;28;20275;-45
2021/03/09 05:30:29;;;;;;;8.43;4.90;;;2.30;67.90;;;;;;5056593;28;20227;-45
2021/03/09 05:32:57;;;;;;;10.30;5.80;;;2.00;67.90;;;;;;5056167;28;20196;-44
2021/03/09 05:35:23;;;;;;;7.90;5.18;;;1.60;67.50;;;;;;5056001;28;20358;-45
2021/03/09 05:37:50;;;;;;;9.02;5.68;;;1.70;67.60;;;;;;5056229;28;20230;-45
2021/03/09 05:40:18;;;;;;;11.38;5.22;;;2.10;68.10;;;;;;5056291;28;20207;-45
2021/03/09 05:42:48;;;;;;;10.18;5.75;;;1.60;67.70;;;;;;5055376;28;20192;-46
2021/03/09 05:45:15;;;;;;;12.25;5.68;;;2.10;68.10;;;;;;5055240;28;20310;-46
2021/03/09 05:47:42;;;;;;;12.07;5.00;;;2.20;68.40;;;;;;5055114;28;20282;-45
2021/03/09 05:50:09;;;;;;;10.50;5.30;;;2.30;68.30;;;;;;5055200;28;20271;-45
2021/03/09 05:52:36;;;;;;;8.43;5.18;;;2.20;68.20;;;;;;5054519;28;20283;-46
2021/03/09 05:55:06;;;;;;;9.57;5.60;;;2.20;68.30;;;;;;5054582;28;20234;-44
2021/03/09 05:57:33;;;;;;;9.38;5.85;;;2.20;68.30;;;;;;5054871;28;20631;-44
2021/03/09 06:00:00;;;;;;;8.68;5.30;;;2.40;68.50;;;;;;5054949;28;20257;-45
2021/03/09 06:02:28;;;;;;;9.25;5.78;;;2.50;68.70;;;;;;5054530;28;20285;-45
2021/03/09 06:04:54;;;;;;;11.43;6.35;;;2.10;68.20;;;;;;5054408;28;20587;-46
2021/03/09 06:07:21;;;;;;;11.45;5.90;;;2.40;68.70;;;;;;5054675;28;20886;-46
2021/03/09 06:09:48;;;;;;;9.48;5.68;;;2.30;68.00;;;;;;5054668;28;20225;-45
2021/03/09 06:12:16;;;;;;;9.05;6.32;;;1.80;68.00;;;;;;5054332;28;20196;-45
2021/03/09 06:14:45;;;;;;;16.77;6.25;;;2.20;68.30;;;;;;5054927;28;20567;-45
2021/03/09 06:17:22;;;;;;;16.38;6.15;;;2.40;68.40;;;;;;5055027;28;20233;-45
2021/03/09 06:19:48;;;;;;;12.90;5.88;;;2.40;68.50;;;;;;5055122;28;20237;-44
2021/03/09 06:22:16;;;;;;;12.95;6.38;;;1.90;67.70;;;;;;5054894;28;20220;-48
2021/03/09 06:24:43;;;;;;;12.15;6.65;;;2.60;69.30;;;;;;5036581;28;20711;-44
2021/03/09 06:27:24;;;;;;;10.65;6.28;;;2.50;68.40;;;;;;5054438;28;20283;-45
2021/03/09 06:29:51;;;;;;;19.58;8.80;;;2.10;67.90;;;;;;5054048;28;20275;-45
2021/03/09 06:32:17;;;;;;;11.50;7.07;;;2.50;68.30;;;;;;5053600;28;20192;-45
2021/03/09 06:34:44;;;;;;;15.18;6.88;;;2.60;68.10;;;;;;5053530;28;20188;-46
2021/03/09 06:37:13;;;;;;;10.15;6.22;;;2.80;68.30;;;;;;5053094;28;20231;-46
2021/03/09 06:39:54;;;;;;;9.35;5.70;;;2.70;68.20;;;;;;5053244;28;20207;-46
2021/03/09 06:42:23;;;;;;;17.77;7.00;;;2.80;68.20;;;;;;5053137;28;20274;-45
2021/03/09 06:44:54;;;;;;;10.82;6.28;;;2.80;68.10;;;;;;5053163;28;20618;-45
2021/03/09 06:47:38;;;;;;;10.73;6.00;;;3.00;68.20;;;;;;5053176;28;20656;-44
2021/03/09 06:50:07;;;;;;;15.80;6.95;;;2.80;67.80;;;;;;5052967;28;20265;-46
2021/03/09 06:52:33;;;;;;;14.05;6.30;;;2.80;67.40;;;;;;5053027;28;20203;-45
2021/03/09 06:55:00;;;;;;;11.70;7.22;;;3.10;67.80;;;;;;5052706;28;20888;-45
2021/03/09 06:57:26;;;;;;;11.90;6.82;;;2.80;67.50;;;;;;5053206;28;20664;-45
2021/03/09 06:59:55;;;;;;;17.05;9.70;;;2.50;66.90;;;;;;5052594;28;20192;-45
2021/03/09 07:02:23;;;;;;;11.50;7.28;;;3.20;67.50;;;;;;5052086;28;20192;-45
2021/03/09 07:04:50;;;;;;;9.90;6.20;;;3.20;67.10;;;;;;5052383;28;20223;-45
2021/03/09 07:07:27;;;;;;;13.25;7.03;;;3.30;67.20;;;;;;5052853;28;20274;-44
2021/03/09 07:09:57;;;;;;;12.52;6.82;;;3.10;66.80;;;;;;5052796;28;20200;-44
2021/03/09 07:12:24;;;;;;;14.05;6.68;;;3.40;66.90;;;;;;5052996;28;20222;-46
2021/03/09 07:14:51;;;;;;;18.42;9.38;;;3.20;66.40;;;;;;5052463;28;20212;-46
2021/03/09 07:17:22;;;;;;;13.68;7.80;;;3.20;66.50;;;;;;5052826;28;20265;-45
2021/03/09 07:19:49;;;;;;;17.77;8.05;;;2.80;66.00;;;;;;5052510;28;20644;-46
2021/03/09 07:22:17;;;;;;;16.85;8.52;;;3.30;66.30;;;;;;5051591;28;20224;-45
2021/03/09 07:24:52;;;;;;;16.65;7.78;;;2.80;65.80;;;;;;5052389;28;20251;-46
2021/03/09 07:27:26;;;;;;;12.10;6.57;;;3.40;66.30;;;;;;5052877;28;20274;-46
2021/03/09 07:29:57;;;;;;;15.90;7.47;;;3.40;66.20;;;;;;5053039;28;20477;-45
2021/03/09 07:32:29;;;;;;;13.07;6.97;;;3.60;66.50;;;;;;5052410;28;20694;-44
2021/03/09 07:34:56;;;;;;;18.35;7.68;;;3.50;66.30;;;;;;5052530;28;20283;-46
2021/03/09 07:37:23;;;;;;;12.15;7.57;;;3.30;66.00;;;;;;5052593;28;20704;-46
2021/03/09 07:39:49;;;;;;;15.68;7.13;;;3.60;66.40;;;;;;5052250;28;20279;-45
2021/03/09 07:42:17;;;;;;;14.48;6.63;;;3.80;66.50;;;;;;5052705;28;20224;-45
2021/03/09 07:44:45;;;;;;;12.27;7.22;;;3.70;66.40;;;;;;5052277;28;20228;-46
2021/03/09 07:47:13;;;;;;;13.55;6.80;;;3.70;66.50;;;;;;5052920;28;20214;-45
2021/03/09 07:49:41;;;;;;;11.43;6.75;;;3.90;66.50;;;;;;5052236;28;20293;-46
2021/03/09 07:52:18;;;;;;;12.75;6.93;;;3.10;65.60;;;;;;5052023;28;20196;-45
2021/03/09 07:55:17;;;;;;;14.00;7.07;;;3.90;65.90;;;;;;5052050;28;20237;-45
2021/03/09 07:57:44;;;;;;;11.02;7.40;;;3.80;66.00;;;;;;5052341;28;20215;-44
2021/03/09 08:00:12;;;;;;;13.68;7.43;;;4.10;66.10;;;;;;5053191;28;20192;-44
2021/03/09 08:02:40;;;;;;;12.48;7.95;;;4.10;65.90;;;;;;5052263;28;20620;-44
2021/03/09 08:05:10;;;;;;;14.20;7.60;;;4.20;65.80;;;;;;5034380;28;20281;-45
2021/03/09 08:08:02;;;;;;;17.20;8.68;;;4.10;65.40;;;;;;5052122;28;20191;-45
2021/03/09 08:10:44;;;;;;;11.23;7.45;;;4.00;65.40;;;;;;5037754;28;20215;-45
2021/03/09 08:13:27;;;;;;;16.20;7.88;;;4.40;65.90;;;;;;5051988;28;20676;-46
2021/03/09 08:16:30;;;;;;;16.83;8.73;;;4.00;65.50;;;;;;5051915;28;20287;-46
2021/03/09 08:18:58;;;;;;;19.10;8.88;;;4.30;65.40;;;;;;5048627;28;20617;-46
2021/03/09 08:22:03;;;;;;;15.07;7.55;;;4.20;65.10;;;;;;5052955;28;20254;-46
2021/03/09 08:24:55;;;;;;;11.07;7.20;;;4.40;65.20;;;;;;5049800;28;20239;-45
2021/03/09 08:27:32;;;;;;;13.75;7.10;;;4.50;65.00;;;;;;5051915;28;20260;-44
2021/03/09 08:30:30;;;;;;;12.35;6.95;;;4.60;64.90;;;;;;5052443;28;20333;-46
2021/03/09 08:33:24;;;;;;;12.63;7.32;;;4.50;64.70;;;;;;5051722;28;20230;-46
2021/03/09 08:35:50;;;;;;;11.55;7.88;;;4.90;65.10;;;;;;5000326;28;20235;-46
2021/03/09 08:38:20;;;;;;;15.95;7.50;;;4.30;64.40;;;;;;5052931;28;20192;-46
2021/03/09 08:41:02;;;;;;;10.68;6.80;;;4.60;64.50;;;;;;5052857;28;20191;-46
2021/03/09 08:43:28;;;;;;;14.15;7.13;;;4.70;64.20;;;;;;5052578;28;20222;-47
2021/03/09 08:45:57;;;;;;;16.02;8.40;;;4.60;64.10;;;;;;5034857;28;20597;-47
2021/03/09 08:48:56;;;;;;;13.13;7.20;;;4.70;63.90;;;;;;5052745;28;20207;-49
2021/03/09 08:51:48;;;;;;;15.20;7.97;;;5.00;63.90;;;;;;5053220;28;20218;-46
2021/03/09 08:54:30;;;;;;;14.13;7.85;;;5.00;63.80;;;;;;5052351;28;20287;-46
2021/03/09 08:56:58;;;;;;;12.02;6.90;;;4.60;63.50;;;;;;5074809;22;20227;-49
2021/03/09 08:59:26;;;;;;;13.05;7.22;;;4.90;63.50;;;;;;5050714;28;20218;-49
2021/03/09 09:01:53;;;;;;;12.00;6.70;;;4.90;63.60;;;;;;5033064;28;20281;-48
2021/03/09 09:04:20;;;;;;;9.70;6.35;;;4.70;63.20;;;;;;5050905;28;20215;-47
2021/03/09 09:06:48;;;;;;;12.30;7.78;;;4.80;63.10;;;;;;5050546;28;20215;-50
2021/03/09 09:09:30;;;;;;;14.02;6.78;;;4.70;62.70;;;;;;5050343;28;20192;-48
2021/03/09 09:11:57;;;;;;;9.98;6.60;;;5.00;62.90;;;;;;5050670;28;20192;-49
2021/03/09 09:14:24;;;;;;;11.98;7.95;;;5.00;62.70;;;;;;5050300;28;20270;-48
2021/03/09 09:16:54;;;;;;;9.38;6.50;;;5.00;62.50;;;;;;5032718;28;20223;-49
2021/03/09 09:19:20;;;;;;;12.65;7.30;;;5.00;62.50;;;;;;5050677;28;20695;-47
2021/03/09 09:21:49;;;;;;;9.73;6.57;;;4.30;61.60;;;;;;5050292;28;20200;-49
2021/03/09 09:24:18;;;;;;;10.00;6.25;;;5.20;62.60;;;;;;5050335;28;20220;-47
2021/03/09 09:26:44;;;;;;;15.70;6.40;;;5.10;62.30;;;;;;5050567;28;20269;-48
2021/03/09 09:29:12;;;;;;;10.75;7.03;;;4.70;61.70;;;;;;5050826;28;20524;-48
2021/03/09 09:31:39;;;;;;;11.65;7.28;;;5.20;62.00;;;;;;5050523;28;20385;-49
2021/03/09 09:34:07;;;;;;;9.77;5.95;;;5.20;61.80;;;;;;5050712;28;20536;-48
2021/03/09 09:36:34;;;;;;;12.48;6.93;;;5.10;61.60;;;;;;5050234;28;20216;-47
2021/03/09 09:39:01;;;;;;;10.88;6.20;;;5.20;61.40;;;;;;5051098;28;20242;-48
2021/03/09 09:41:28;;;;;;;10.90;6.78;;;5.10;61.40;;;;;;5050427;28;20275;-48
2021/03/09 09:43:54;;;;;;;13.05;5.28;;;5.30;61.50;;;;;;5050014;28;20292;-49
2021/03/09 09:46:24;;;;;;;18.92;7.20;;;5.20;61.40;;;;;;5033126;28;20235;-49
2021/03/09 09:48:52;;;;;;;9.20;5.78;;;5.70;61.50;;;;;;5054448;28;20200;-49
2021/03/09 09:51:21;;;;;;;10.98;5.88;;;5.50;60.60;;;;;;5053750;28;20242;-48
2021/03/09 09:53:49;;;;;;;11.40;6.40;;;5.20;59.70;;;;;;5035497;28;20749;-49
2021/03/09 09:56:24;;;;;;;9.35;5.78;;;5.40;59.70;;;;;;5053770;28;20224;-49
2021/03/09 09:58:52;;;;;;;9.60;5.43;;;5.40;59.60;;;;;;5053650;28;20188;-48
2021/03/09 10:01:21;;;;;;;10.23;5.85;;;5.50;59.60;;;;;;5053902;28;20243;-48
2021/03/09 10:03:53;;;;;;;11.38;4.95;;;5.60;59.50;;;;;;5053780;28;20200;-49
2021/03/09 10:06:20;;;;;;;10.25;5.05;;;5.50;59.10;;;;;;5053400;28;20288;-48
2021/03/09 10:08:47;;;;;;;7.80;4.55;;;5.60;59.00;;;;;;5054799;28;20204;-48
2021/03/09 10:11:14;;;;;;;7.60;5.18;;;5.50;58.40;;;;;;5055035;28;20263;-48
2021/03/09 10:13:41;;;;;;;9.02;4.68;;;5.70;58.20;;;;;;5054183;28;20196;-49
2021/03/09 10:16:08;;;;;;;9.98;5.15;;;5.80;57.80;;;;;;5053444;28;20223;-48
2021/03/09 10:18:35;;;;;;;8.30;5.70;;;6.00;57.50;;;;;;5053936;28;20234;-47
2021/03/09 10:21:08;;;;;;;9.35;5.00;;;5.90;57.30;;;;;;5055443;28;20196;-48
2021/03/09 10:23:51;;;;;;;8.82;4.45;;;6.00;57.00;;;;;;5053009;28;20196;-48
2021/03/09 10:26:27;;;;;;;9.50;5.10;;;6.00;57.20;;;;;;5053040;28;20262;-48
2021/03/09 10:29:01;;;;;;;7.50;4.63;;;6.20;57.00;;;;;;5053198;28;20226;-48
2021/03/09 10:31:39;;;;;;;7.18;3.85;;;6.10;56.80;;;;;;5053358;28;20486;-49
2021/03/09 10:34:05;;;;;;;12.40;3.80;;;6.10;55.70;;;;;;5035065;28;20204;-48
2021/03/09 10:36:49;;;;;;;6.57;4.80;;;6.10;55.60;;;;;;5053231;28;20835;-55
2021/03/09 10:39:16;;;;;;;12.33;4.60;;;5.60;54.90;;;;;;5052980;28;20821;-48
2021/03/09 10:41:43;;;;;;;11.23;4.17;;;6.30;55.40;;;;;;5034820;28;20527;-49
2021/03/09 10:44:29;;;;;;;10.85;5.25;;;6.30;54.90;;;;;;5053056;28;20819;-49
2021/03/09 10:46:55;;;;;;;11.43;4.30;;;6.50;54.90;;;;;;5054530;28;20237;-49
2021/03/09 10:49:22;;;;;;;7.30;4.65;;;6.40;54.70;;;;;;5054313;28;20416;-47
2021/03/09 10:51:55;;;;;;;7.73;4.47;;;6.60;54.40;;;;;;5054647;28;20233;-48
2021/03/09 10:54:21;;;;;;;7.77;4.00;;;6.40;54.50;;;;;;5053710;28;20448;-48
2021/03/09 10:56:48;;;;;;;8.50;4.23;;;6.50;54.50;;;;;;5035220;28;20534;-49
2021/03/09 10:59:14;;;;;;;9.03;3.83;;;6.60;54.20;;;;;;5053739;28;20437;-48
2021/03/09 11:01:40;;;;;;;8.57;4.73;;;6.60;53.90;;;;;;5054255;28;20882;-47
2021/03/09 11:04:07;;;;;;;4.87;4.17;;;6.50;53.30;;;;;;5053397;28;20479;-47
2021/03/09 11:06:33;;;;;;;7.77;4.50;;;6.50;53.70;;;;;;5054058;28;20515;-48
2021/03/09 11:09:00;;;;;;;6.70;4.57;;;6.80;54.10;;;;;;5053293;28;20835;-49
2021/03/09 11:11:27;;;;;;;13.57;4.60;;;6.80;54.30;;;;;;5053413;28;20406;-48
2021/03/09 11:13:53;;;;;;;7.17;4.30;;;6.90;54.40;;;;;;5053385;28;20449;-48
2021/03/09 11:16:19;;;;;;;8.43;4.23;;;6.80;54.10;;;;;;5052414;28;20511;-49
2021/03/09 11:18:46;;;;;;;12.30;5.10;;;6.90;54.30;;;;;;5052167;28;20516;-49
2021/03/09 11:21:12;;;;;;;12.53;4.30;;;6.50;54.00;;;;;;5052935;28;20874;-48
2021/03/09 11:23:39;;;;;;;13.60;4.80;;;6.70;53.90;;;;;;5052318;28;20439;-48
2021/03/09 11:26:07;;;;;;;5.73;3.77;;;6.70;54.00;;;;;;5051867;28;20458;-48
2021/03/09 11:28:33;;;;;;;6.50;3.30;;;6.70;53.70;;;;;;5052532;28;20438;-49
2021/03/09 11:31:01;;;;;;;5.17;3.10;;;6.70;53.30;;;;;;5052374;28;20439;-47
2021/03/09 11:33:27;;;;;;;6.83;3.90;;;6.60;53.10;;;;;;5052081;28;20483;-49
2021/03/09 11:35:53;;;;;;;6.60;3.60;;;6.50;52.80;;;;;;5052833;28;20446;-48
2021/03/09 11:38:20;;;;;;;7.67;4.17;;;6.60;52.90;;;;;;5053459;28;20995;-49
2021/03/09 11:40:47;;;;;;;7.07;2.93;;;6.40;52.70;;;;;;5053801;28;20931;-48
2021/03/09 11:43:14;;;;;;;6.73;3.60;;;6.50;52.70;;;;;;5052203;28;20973;-48
2021/03/09 11:45:41;;;;;;;4.90;2.20;;;6.60;52.50;;;;;;5052259;28;20478;-48
2021/03/09 11:48:08;;;;;;;6.65;2.58;;;6.60;51.50;;;;;;5051616;28;20523;-48
2021/03/09 11:50:34;;;;;;;7.07;3.33;;;6.50;50.20;;;;;;5051964;28;20242;-48
2021/03/09 11:53:00;;;;;;;6.00;3.80;;;6.60;50.70;;;;;;5051154;28;20982;-47
2021/03/09 11:55:27;;;;;;;9.30;4.30;;;6.50;50.20;;;;;;5051401;28;20528;-49
2021/03/09 11:57:54;;;;;;;13.50;3.77;;;6.40;50.60;;;;;;5051363;28;20436;-49
2021/03/09 12:00:22;;;;;;;10.88;3.30;;;6.40;50.20;;;;;;5051471;28;20437;-49
2021/03/09 12:02:49;;;;;;;4.50;2.97;;;6.00;49.90;;;;;;5051000;28;20192;-49
2021/03/09 12:05:16;;;;;;;5.53;3.33;;;6.50;50.30;;;;;;5051481;28;20479;-49
2021/03/09 12:07:43;;;;;;;5.83;3.00;;;6.30;50.30;;;;;;5051427;28;20431;-48
2021/03/09 12:10:10;;;;;;;4.70;3.10;;;6.40;50.60;;;;;;5050249;28;20442;-48
2021/03/09 12:12:37;;;;;;;11.17;3.57;;;6.50;50.40;;;;;;5050825;28;20483;-48
2021/03/09 12:15:05;;;;;;;5.80;3.00;;;6.50;50.50;;;;;;5051345;28;20431;-49
2021/03/09 12:17:33;;;;;;;6.27;3.23;;;6.70;50.80;;;;;;5051490;28;20924;-49
2021/03/09 12:19:59;;;;;;;8.47;3.07;;;6.40;50.70;;;;;;5050667;28;20526;-47
2021/03/09 12:22:26;;;;;;;5.10;2.87;;;6.70;51.40;;;;;;5050770;28;20484;-48
2021/03/09 12:24:54;;;;;;;9.90;3.47;;;6.50;51.20;;;;;;5050825;28;20447;-48
2021/03/09 12:27:21;;;;;;;6.40;3.97;;;6.30;50.80;;;;;;5051469;28;20509;-48
2021/03/09 12:29:48;;;;;;;5.13;3.30;;;6.80;50.90;;;;;;5050976;28;20434;-47
2021/03/09 12:32:15;;;;;;;6.93;2.90;;;6.60;50.30;;;;;;5051141;28;20470;-48
2021/03/09 12:34:43;;;;;;;5.30;3.70;;;6.70;50.20;;;;;;5051028;28;20402;-49
2021/03/09 12:37:10;;;;;;;5.47;3.53;;;7.00;50.70;;;;;;5052226;28;20919;-49
2021/03/09 12:39:36;;;;;;;7.43;3.73;;;6.80;50.30;;;;;;5051214;28;20410;-48
2021/03/09 12:42:03;;;;;;;4.50;3.30;;;6.80;50.00;;;;;;5050457;28;20859;-49
2021/03/09 12:44:30;;;;;;;8.03;5.10;;;7.00;50.30;;;;;;5050085;28;20522;-48
2021/03/09 12:46:57;;;;;;;8.13;4.57;;;6.90;50.00;;;;;;5050517;28;20489;-49
2021/03/09 12:49:24;;;;;;;8.43;4.10;;;6.90;50.00;;;;;;5050206;28;20406;-48
2021/03/09 12:51:51;;;;;;;7.87;5.23;;;6.70;49.90;;;;;;5050919;28;20418;-49
2021/03/09 12:54:18;;;;;;;4.80;4.13;;;6.80;49.70;;;;;;5050370;28;20488;-49
2021/03/09 12:56:45;;;;;;;8.50;5.53;;;7.00;49.90;;;;;;5050685;28;20454;-47
2021/03/09 12:59:13;;;;;;;11.43;4.80;;;7.10;50.00;;;;;;5055308;28;20468;-48
2021/03/09 13:01:40;;;;;;;10.03;4.20;;;6.90;50.10;;;;;;5050469;28;20493;-48
2021/03/09 13:04:07;;;;;;;9.33;5.63;;;6.90;50.70;;;;;;5050124;28;20441;-47